Terminal Aerodrome Forecast
Issued by NWS

Home | Current Version | Previous Version | Text Only | Print | Product List | Glossary On
Versions: 1 2 3 4 5 6 7 8 9 10 11 12 13 14 15
000
FTUS46 KLOX 200547
TAFPMD
TAF
KPMD 200547Z 2006/2106 28020G30KT P6SM VCSH SCT025 BKN050
     FM201200 29015G25KT P6SM SCT025 SCT050
     FM201700 29025G35KT P6SM SCT050
     FM210200 29015G23KT P6SM SCT050=

USA.gov is the U.S. government's official web portal to all federal, state and local government web resources and services.